sensor_id;sensor_type;location;lat;lon;timestamp;pressure;altitude;pressure_sealevel;temperature;humidity
20105;BME280;10212;42.714;23.310;2023-03-19T00:00:07;95724.53;;;0.07;79.97
20105;BME280;10212;42.714;23.310;2023-03-19T00:10:08;95726.47;;;-0.18;80.71
20105;BME280;10212;42.714;23.310;2023-03-19T00:20:09;95725.63;;;-0.19;81.56
20105;BME280;10212;42.714;23.310;2023-03-19T00:30:10;95717.84;;;-0.29;81.76
20105;BME280;10212;42.714;23.310;2023-03-19T00:40:11;95712.03;;;-0.31;82.69
20105;BME280;10212;42.714;23.310;2023-03-19T00:50:11;95698.28;;;-0.30;82.24
20105;BME280;10212;42.714;23.310;2023-03-19T01:00:12;95689.69;;;-0.40;81.89
20105;BME280;10212;42.714;23.310;2023-03-19T01:10:12;95688.31;;;-0.44;81.33
20105;BME280;10212;42.714;23.310;2023-03-19T01:20:13;95679.59;;;-0.65;82.86
20105;BME280;10212;42.714;23.310;2023-03-19T01:30:17;95679.81;;;-1.02;84.23
20105;BME280;10212;42.714;23.310;2023-03-19T01:40:17;95682.25;;;-1.12;85.41
20105;BME280;10212;42.714;23.310;2023-03-19T01:50:25;95687.16;;;-1.09;84.71
20105;BME280;10212;42.714;23.310;2023-03-19T02:00:26;95693.88;;;-1.19;85.73
20105;BME280;10212;42.714;23.310;2023-03-19T02:10:27;95693.53;;;-1.26;85.88
20105;BME280;10212;42.714;23.310;2023-03-19T02:20:33;95693.88;;;-1.31;86.59
20105;BME280;10212;42.714;23.310;2023-03-19T02:30:35;95691.22;;;-1.29;87.13
20105;BME280;10212;42.714;23.310;2023-03-19T02:40:37;95693.41;;;-1.25;85.54
20105;BME280;10212;42.714;23.310;2023-03-19T02:50:40;95699.91;;;-1.32;85.78
20105;BME280;10212;42.714;23.310;2023-03-19T03:00:40;95709.00;;;-1.28;85.47
20105;BME280;10212;42.714;23.310;2023-03-19T03:10:41;95714.56;;;-1.34;85.64
20105;BME280;10212;42.714;23.310;2023-03-19T03:20:41;95720.31;;;-1.55;86.28
20105;BME280;10212;42.714;23.310;2023-03-19T03:41:20;95723.25;;;-1.84;87.28
20105;BME280;10212;42.714;23.310;2023-03-19T03:51:20;95739.38;;;-1.84;87.17
20105;BME280;10212;42.714;23.310;2023-03-19T04:01:21;95735.09;;;-1.83;87.60
20105;BME280;10212;42.714;23.310;2023-03-19T04:11:21;95736.94;;;-1.85;88.34
20105;BME280;10212;42.714;23.310;2023-03-19T04:21:22;95722.53;;;-1.86;89.36
20105;BME280;10212;42.714;23.310;2023-03-19T04:31:22;95733.03;;;-1.78;88.59
20105;BME280;10212;42.714;23.310;2023-03-19T04:41:22;95733.38;;;-1.83;88.56
20105;BME280;10212;42.714;23.310;2023-03-19T04:51:23;95738.63;;;-1.73;88.76
20105;BME280;10212;42.714;23.310;2023-03-19T05:01:23;95735.41;;;-1.63;88.46
20105;BME280;10212;42.714;23.310;2023-03-19T05:11:24;95746.56;;;-1.40;87.47
20105;BME280;10212;42.714;23.310;2023-03-19T05:21:24;95738.44;;;-1.22;87.33
20105;BME280;10212;42.714;23.310;2023-03-19T05:31:25;95741.69;;;-1.20;85.30
20105;BME280;10212;42.714;23.310;2023-03-19T05:41:26;95749.97;;;-1.16;85.65
20105;BME280;10212;42.714;23.310;2023-03-19T05:51:26;95753.47;;;-1.06;85.52
20105;BME280;10212;42.714;23.310;2023-03-19T06:01:26;95761.19;;;-0.94;85.90
20105;BME280;10212;42.714;23.310;2023-03-19T06:11:26;95752.00;;;-0.63;85.61
20105;BME280;10212;42.714;23.310;2023-03-19T06:21:27;95746.75;;;-0.27;84.13
20105;BME280;10212;42.714;23.310;2023-03-19T06:31:29;95753.91;;;0.03;82.04
20105;BME280;10212;42.714;23.310;2023-03-19T06:41:30;95763.25;;;0.37;80.56
20105;BME280;10212;42.714;23.310;2023-03-19T06:51:30;95768.25;;;0.71;78.65
20105;BME280;10212;42.714;23.310;2023-03-19T07:01:31;95772.66;;;1.02;76.09
20105;BME280;10212;42.714;23.310;2023-03-19T07:11:31;95777.03;;;1.42;74.94
20105;BME280;10212;42.714;23.310;2023-03-19T07:21:32;95780.41;;;1.74;73.69
20105;BME280;10212;42.714;23.310;2023-03-19T07:31:32;95771.84;;;2.05;72.26
20105;BME280;10212;42.714;23.310;2023-03-19T07:41:32;95766.72;;;2.45;69.23
20105;BME280;10212;42.714;23.310;2023-03-19T07:51:33;95767.94;;;2.80;68.80
20105;BME280;10212;42.714;23.310;2023-03-19T08:01:33;95764.16;;;3.42;66.79
20105;BME280;10212;42.714;23.310;2023-03-19T08:11:34;95753.94;;;3.79;64.96
20105;BME280;10212;42.714;23.310;2023-03-19T08:21:34;95751.94;;;4.01;64.04
20105;BME280;10212;42.714;23.310;2023-03-19T08:31:35;95760.16;;;4.32;62.34
20105;BME280;10212;42.714;23.310;2023-03-19T08:41:35;95750.88;;;4.58;60.22
20105;BME280;10212;42.714;23.310;2023-03-19T08:51:35;95734.44;;;4.86;58.99
20105;BME280;10212;42.714;23.310;2023-03-19T09:01:35;95719.47;;;5.16;59.28
20105;BME280;10212;42.714;23.310;2023-03-19T09:11:36;95699.97;;;5.73;53.78
20105;BME280;10212;42.714;23.310;2023-03-19T09:21:37;95693.59;;;6.02;52.92
20105;BME280;10212;42.714;23.310;2023-03-19T09:31:37;95697.72;;;6.47;49.15
20105;BME280;10212;42.714;23.310;2023-03-19T09:51:46;95677.38;;;7.17;47.28
20105;BME280;10212;42.714;23.310;2023-03-19T10:01:49;95669.47;;;7.51;45.86
20105;BME280;10212;42.714;23.310;2023-03-19T10:21:58;95646.09;;;8.53;43.23
20105;BME280;10212;42.714;23.310;2023-03-19T10:32:07;95616.31;;;8.79;42.48
20105;BME280;10212;42.714;23.310;2023-03-19T10:52:35;95575.69;;;9.45;41.44
20105;BME280;10212;42.714;23.310;2023-03-19T11:02:36;95561.03;;;10.03;41.27
20105;BME280;10212;42.714;23.310;2023-03-19T11:12:36;95547.19;;;10.31;40.64
20105;BME280;10212;42.714;23.310;2023-03-19T11:22:37;95528.75;;;10.97;40.35
20105;BME280;10212;42.714;23.310;2023-03-19T12:03:41;95461.25;;;11.84;38.42
20105;BME280;10212;42.714;23.310;2023-03-19T12:44:25;95412.69;;;13.01;37.08
20105;BME280;10212;42.714;23.310;2023-03-19T12:54:33;95404.56;;;13.10;37.00
20105;BME280;10212;42.714;23.310;2023-03-19T13:04:37;95395.72;;;13.36;36.32
20105;BME280;10212;42.714;23.310;2023-03-19T13:24:45;95373.94;;;13.68;35.80
20105;BME280;10212;42.714;23.310;2023-03-19T13:34:47;95364.59;;;13.98;36.19
20105;BME280;10212;42.714;23.310;2023-03-19T13:44:51;95359.84;;;14.07;35.75
20105;BME280;10212;42.714;23.310;2023-03-19T13:54:59;95346.91;;;14.31;35.01
20105;BME280;10212;42.714;23.310;2023-03-19T14:05:18;95338.56;;;14.53;34.67
20105;BME280;10212;42.714;23.310;2023-03-19T14:25:20;95322.25;;;14.81;35.11
20105;BME280;10212;42.714;23.310;2023-03-19T14:35:21;95316.53;;;15.51;33.82
20105;BME280;10212;42.714;23.310;2023-03-19T14:55:40;95309.06;;;15.96;33.04
20105;BME280;10212;42.714;23.310;2023-03-19T15:05:40;95312.09;;;15.76;33.45
20105;BME280;10212;42.714;23.310;2023-03-19T15:25:45;95321.47;;;15.60;33.58
20105;BME280;10212;42.714;23.310;2023-03-19T15:35:45;95318.84;;;15.60;33.94
20105;BME280;10212;42.714;23.310;2023-03-19T15:45:47;95316.28;;;15.29;34.73
20105;BME280;10212;42.714;23.310;2023-03-19T15:55:49;95321.56;;;14.86;35.59
20105;BME280;10212;42.714;23.310;2023-03-19T16:05:51;95333.75;;;14.50;35.45
20105;BME280;10212;42.714;23.310;2023-03-19T16:16:01;95335.44;;;14.06;36.33
20105;BME280;10212;42.714;23.310;2023-03-19T16:26:04;95344.31;;;13.42;38.15
20105;BME280;10212;42.714;23.310;2023-03-19T16:36:10;95350.59;;;12.76;38.79
20105;BME280;10212;42.714;23.310;2023-03-19T16:46:12;95354.56;;;12.40;39.94
20105;BME280;10212;42.714;23.310;2023-03-19T16:56:13;95358.09;;;12.00;40.54
20105;BME280;10212;42.714;23.310;2023-03-19T17:06:15;95356.75;;;11.70;41.99
20105;BME280;10212;42.714;23.310;2023-03-19T17:16:16;95372.22;;;11.38;43.65
20105;BME280;10212;42.714;23.310;2023-03-19T17:26:27;95379.66;;;11.07;45.22
20105;BME280;10212;42.714;23.310;2023-03-19T17:36:27;95387.66;;;10.98;45.95
20105;BME280;10212;42.714;23.310;2023-03-19T17:46:36;95388.97;;;10.60;48.21
20105;BME280;10212;42.714;23.310;2023-03-19T17:56:37;95402.81;;;10.19;49.53
20105;BME280;10212;42.714;23.310;2023-03-19T18:06:38;95405.75;;;9.80;50.37
20105;BME280;10212;42.714;23.310;2023-03-19T18:16:39;95414.50;;;9.44;52.95
20105;BME280;10212;42.714;23.310;2023-03-19T18:26:40;95425.16;;;9.27;53.71
20105;BME280;10212;42.714;23.310;2023-03-19T18:36:40;95440.53;;;8.85;55.17
20105;BME280;10212;42.714;23.310;2023-03-19T18:46:40;95451.94;;;8.68;56.88
20105;BME280;10212;42.714;23.310;2023-03-19T18:56:41;95453.22;;;8.42;56.71
20105;BME280;10212;42.714;23.310;2023-03-19T19:06:42;95463.59;;;8.12;57.83
20105;BME280;10212;42.714;23.310;2023-03-19T19:16:43;95469.19;;;7.86;59.52
20105;BME280;10212;42.714;23.310;2023-03-19T19:26:44;95481.06;;;7.65;60.28
20105;BME280;10212;42.714;23.310;2023-03-19T19:36:45;95484.00;;;7.38;61.99
20105;BME280;10212;42.714;23.310;2023-03-19T19:46:45;95485.03;;;7.29;62.82
20105;BME280;10212;42.714;23.310;2023-03-19T19:56:46;95495.94;;;6.92;64.68
20105;BME280;10212;42.714;23.310;2023-03-19T20:06:46;95487.47;;;6.67;65.94
20105;BME280;10212;42.714;23.310;2023-03-19T20:16:47;95502.28;;;6.41;67.13
20105;BME280;10212;42.714;23.310;2023-03-19T20:26:47;95512.03;;;6.22;68.03
20105;BME280;10212;42.714;23.310;2023-03-19T20:36:48;95532.59;;;6.15;69.45
20105;BME280;10212;42.714;23.310;2023-03-19T20:46:48;95544.09;;;6.13;69.96
20105;BME280;10212;42.714;23.310;2023-03-19T20:56:48;95542.78;;;6.09;68.33
20105;BME280;10212;42.714;23.310;2023-03-19T21:06:48;95536.31;;;5.88;69.64
20105;BME280;10212;42.714;23.310;2023-03-19T21:16:49;95541.50;;;5.71;70.46
20105;BME280;10212;42.714;23.310;2023-03-19T21:26:50;95539.84;;;5.53;70.67
20105;BME280;10212;42.714;23.310;2023-03-19T21:36:50;95545.31;;;5.34;72.51
20105;BME280;10212;42.714;23.310;2023-03-19T21:46:51;95539.59;;;5.13;73.05
20105;BME280;10212;42.714;23.310;2023-03-19T21:56:51;95546.78;;;4.85;75.25
20105;BME280;10212;42.714;23.310;2023-03-19T22:06:51;95545.78;;;4.77;75.76
20105;BME280;10212;42.714;23.310;2023-03-19T22:16:53;95537.59;;;4.55;76.60
20105;BME280;10212;42.714;23.310;2023-03-19T22:26:56;95545.31;;;4.47;77.20
20105;BME280;10212;42.714;23.310;2023-03-19T22:36:57;95537.22;;;4.42;77.42
20105;BME280;10212;42.714;23.310;2023-03-19T22:46:58;95544.84;;;4.25;78.71
20105;BME280;10212;42.714;23.310;2023-03-19T22:56:59;95533.47;;;4.09;79.88
20105;BME280;10212;42.714;23.310;2023-03-19T23:07:00;95529.50;;;3.97;80.59
20105;BME280;10212;42.714;23.310;2023-03-19T23:17:02;95529.13;;;3.92;80.64
20105;BME280;10212;42.714;23.310;2023-03-19T23:27:02;95538.28;;;3.86;81.29
20105;BME280;10212;42.714;23.310;2023-03-19T23:37:03;95541.16;;;3.65;82.21
20105;BME280;10212;42.714;23.310;2023-03-19T23:47:03;95544.28;;;3.50;83.57
20105;BME280;10212;42.714;23.310;2023-03-19T23:57:07;95526.97;;;3.42;84.10
